createdAt,value
2022-12-03T00:00:34.722Z,102041.88
2022-12-03T00:03:01.418Z,102043.56
2022-12-03T00:05:28.045Z,102044.41
2022-12-03T00:07:54.722Z,102042.69
2022-12-03T00:10:21.237Z,102040.97
2022-12-03T00:12:47.722Z,102040.16
2022-12-03T00:15:14.621Z,102035.94
2022-12-03T00:17:41.089Z,102041.06
2022-12-03T00:20:08.999Z,102038.53
2022-12-03T00:22:35.682Z,102031.75
2022-12-03T00:25:02.205Z,102039.44
2022-12-03T00:27:28.678Z,102034.31
2022-12-03T00:29:55.277Z,102036.06
2022-12-03T00:32:21.709Z,102023.28
2022-12-03T00:34:48.316Z,102025.00
2022-12-03T00:37:14.796Z,102025.78
2022-12-03T00:39:41.243Z,102026.66
2022-12-03T00:42:07.762Z,102024.16
2022-12-03T00:44:34.266Z,102018.09
2022-12-03T00:47:00.763Z,102021.47
2022-12-03T00:49:27.370Z,102018.88
2022-12-03T00:51:53.796Z,102020.66
2022-12-03T00:54:20.304Z,102015.53
2022-12-03T00:56:46.767Z,102019.78
2022-12-03T00:59:13.483Z,102017.94
2022-12-03T01:01:40.049Z,102023.06
2022-12-03T01:04:06.553Z,102020.56
2022-12-03T01:06:33.675Z,102019.72
2022-12-03T01:09:00.236Z,102026.63
2022-12-03T01:11:38.632Z,102032.59
2022-12-03T01:14:19.705Z,102024.81
2022-12-03T01:16:47.755Z,102024.75
2022-12-03T01:19:17.401Z,102036.78
2022-12-03T01:21:45.174Z,102034.25
2022-12-03T01:24:11.977Z,102037.66
2022-12-03T01:26:38.586Z,102035.06
2022-12-03T01:29:05.152Z,102032.47
2022-12-03T01:31:50.377Z,102033.38
2022-12-03T01:34:17.271Z,102032.56
2022-12-03T01:36:43.783Z,102029.97
2022-12-03T01:39:10.357Z,102025.72
2022-12-03T01:41:37.483Z,102024.84
2022-12-03T01:44:11.867Z,102028.28
2022-12-03T01:46:41.021Z,102018.88
2022-12-03T01:49:14.720Z,102025.78
2022-12-03T01:51:41.196Z,102024.03
2022-12-03T01:54:15.822Z,102018.06
2022-12-03T01:56:42.453Z,102018.09
2022-12-03T01:59:13.666Z,102017.25
2022-12-03T02:01:40.174Z,102021.53
2022-12-03T02:04:06.801Z,102013.03
2022-12-03T02:06:33.364Z,102013.84
2022-12-03T02:09:00.322Z,102015.59
2022-12-03T02:11:37.137Z,102012.16
2022-12-03T02:14:07.427Z,102010.44
2022-12-03T02:16:37.037Z,102007.84
2022-12-03T02:19:08.589Z,102007.00
2022-12-03T02:21:58.179Z,102001.06
2022-12-03T02:24:33.414Z,102006.19
2022-12-03T02:26:59.873Z,102000.13
2022-12-03T02:29:27.135Z,102002.69
2022-12-03T02:31:53.709Z,102004.41
2022-12-03T02:34:40.291Z,101998.31
2022-12-03T02:37:09.428Z,101997.50
2022-12-03T02:39:39.224Z,101992.44
2022-12-03T02:42:25.416Z,101998.44
2022-12-03T02:44:52.857Z,101988.19
2022-12-03T02:47:21.405Z,101988.25
2022-12-03T02:49:48.425Z,101983.97
2022-12-03T02:52:15.057Z,101984.81
2022-12-03T02:54:41.923Z,101987.31
2022-12-03T02:57:08.774Z,101983.81
2022-12-03T02:59:35.291Z,101988.06
2022-12-03T03:02:01.930Z,101981.25
2022-12-03T03:04:29.231Z,101989.75
2022-12-03T03:06:55.838Z,101981.25
2022-12-03T03:09:22.621Z,101982.94
2022-12-03T03:11:49.107Z,101979.53
2022-12-03T03:14:15.881Z,101974.47
2022-12-03T03:16:42.551Z,101980.38
2022-12-03T03:19:09.647Z,101979.50
2022-12-03T03:21:36.099Z,101978.69
2022-12-03T03:24:02.590Z,101975.28
2022-12-03T03:26:29.049Z,101976.94
2022-12-03T03:28:55.675Z,101978.63
2022-12-03T03:31:23.684Z,101967.50
2022-12-03T03:33:51.534Z,101977.75
2022-12-03T03:36:19.354Z,101970.84
2022-12-03T03:38:47.171Z,101971.75
2022-12-03T03:41:15.812Z,101970.94
2022-12-03T03:43:45.605Z,101976.94
2022-12-03T03:46:12.468Z,101964.94
2022-12-03T03:48:41.428Z,101976.91
2022-12-03T03:51:09.710Z,101971.78
2022-12-03T03:53:40.190Z,101976.13
2022-12-03T03:56:07.811Z,101973.56
2022-12-03T03:58:34.636Z,101973.59
2022-12-03T04:01:01.956Z,101972.72
2022-12-03T04:03:29.277Z,101969.34
2022-12-03T04:05:55.859Z,101972.72
2022-12-03T04:08:22.818Z,101967.66
2022-12-03T04:11:08.184Z,101966.81
2022-12-03T04:13:34.706Z,101961.69
2022-12-03T04:16:01.557Z,101957.31
2022-12-03T04:18:42.874Z,101959.03
2022-12-03T04:21:34.118Z,101957.34
2022-12-03T04:24:01.247Z,101956.53
2022-12-03T04:26:46.472Z,101957.38
2022-12-03T04:29:13.406Z,101958.19
2022-12-03T04:31:58.403Z,101957.31
2022-12-03T04:34:44.245Z,101949.56
2022-12-03T04:37:11.083Z,101949.50
2022-12-03T04:39:37.937Z,101955.56
2022-12-03T04:42:05.984Z,101947.06
2022-12-03T04:44:33.486Z,101947.00
2022-12-03T04:47:01.396Z,101942.66
2022-12-03T04:49:28.056Z,101943.56
2022-12-03T04:51:54.720Z,101944.44
2022-12-03T04:54:21.214Z,101941.88
2022-12-03T04:56:47.676Z,101944.34
2022-12-03T04:59:16.415Z,101952.84
2022-12-03T05:01:43.867Z,101946.06
2022-12-03T05:04:11.436Z,101949.50
2022-12-03T05:06:38.195Z,101943.56
2022-12-03T05:09:05.104Z,101945.31
2022-12-03T05:11:31.778Z,101950.50
2022-12-03T05:13:58.460Z,101950.47
2022-12-03T05:16:25.138Z,101943.66
2022-12-03T05:18:51.791Z,101952.19
2022-12-03T05:21:18.276Z,101947.94
2022-12-03T05:23:44.810Z,101950.47
2022-12-03T05:26:11.250Z,101947.78
2022-12-03T05:28:37.726Z,101947.78
2022-12-03T05:31:05.259Z,101947.72
2022-12-03T05:33:31.845Z,101939.16
2022-12-03T05:35:58.651Z,101939.16
2022-12-03T05:38:25.109Z,101950.31
2022-12-03T05:40:51.599Z,101952.06
2022-12-03T05:43:18.295Z,101941.78
2022-12-03T05:45:45.168Z,101942.59
2022-12-03T05:48:13.857Z,101940.00
2022-12-03T05:50:43.889Z,101943.47
2022-12-03T05:53:11.848Z,101942.56
2022-12-03T05:55:38.700Z,101941.63
2022-12-03T05:58:05.719Z,101939.16
2022-12-03T06:00:42.348Z,101935.72
2022-12-03T06:03:10.012Z,101940.88
2022-12-03T06:05:36.665Z,101939.16
2022-12-03T06:08:03.516Z,101940.78
2022-12-03T06:10:30.819Z,101941.63
2022-12-03T06:12:57.369Z,101939.06
2022-12-03T06:15:24.052Z,101935.63
2022-12-03T06:17:50.683Z,101938.19
2022-12-03T06:20:19.419Z,101933.88
2022-12-03T06:22:49.384Z,101927.91
2022-12-03T06:25:16.930Z,101927.84
2022-12-03T06:27:43.704Z,101928.72
2022-12-03T06:30:13.542Z,101932.19
2022-12-03T06:32:40.653Z,101937.28
2022-12-03T06:35:07.439Z,101930.38
2022-12-03T06:37:33.896Z,101930.34
2022-12-03T06:40:00.905Z,101923.47
2022-12-03T06:42:27.353Z,101925.25
2022-12-03T06:44:54.134Z,101918.44
2022-12-03T06:47:20.900Z,101929.59
2022-12-03T06:49:47.350Z,101923.53
2022-12-03T06:52:13.885Z,101927.03
2022-12-03T06:54:40.883Z,101926.97
2022-12-03T06:57:07.297Z,101930.44
2022-12-03T06:59:35.797Z,101932.06
2022-12-03T07:02:03.017Z,101938.94
2022-12-03T07:04:29.561Z,101928.75
2022-12-03T07:06:56.027Z,101936.41
2022-12-03T07:09:22.541Z,101929.59
2022-12-03T07:11:49.008Z,101925.31
2022-12-03T07:14:15.484Z,101935.59
2022-12-03T07:16:43.606Z,101925.31
2022-12-03T07:19:11.155Z,101925.25
2022-12-03T07:21:38.070Z,101923.47
2022-12-03T07:24:05.606Z,101926.88
2022-12-03T07:26:32.532Z,101931.22
2022-12-03T07:28:59.204Z,101926.03
2022-12-03T07:31:26.051Z,101926.03
2022-12-03T07:33:52.800Z,101923.53
2022-12-03T07:36:19.315Z,101930.31
2022-12-03T07:38:46.027Z,101935.50
2022-12-03T07:41:12.597Z,101932.16
2022-12-03T07:43:39.049Z,101931.22
2022-12-03T07:46:05.694Z,101933.78
2022-12-03T07:48:32.211Z,101935.50
2022-12-03T07:51:01.219Z,101934.66
2022-12-03T07:53:27.713Z,101926.19
2022-12-03T07:55:54.354Z,101939.94
2022-12-03T07:58:20.868Z,101915.13
2022-12-03T08:00:47.399Z,101927.06
2022-12-03T08:03:13.925Z,101926.28
2022-12-03T08:05:40.384Z,101922.81
2022-12-03T08:08:06.927Z,101933.03
2022-12-03T08:10:33.515Z,101926.94
2022-12-03T08:13:00.121Z,101924.38
2022-12-03T08:15:32.380Z,101931.31
2022-12-03T08:18:13.019Z,101932.16
2022-12-03T08:20:41.581Z,101921.09
2022-12-03T08:23:16.255Z,101924.53
2022-12-03T08:25:44.294Z,101928.88
2022-12-03T08:28:16.611Z,101924.63
2022-12-03T08:30:45.166Z,101928.91
2022-12-03T08:33:25.964Z,101917.81
2022-12-03T08:35:52.510Z,101927.28
2022-12-03T08:38:22.332Z,101933.31
2022-12-03T08:40:51.237Z,101929.84
2022-12-03T08:43:25.364Z,101932.34
2022-12-03T08:45:55.044Z,101931.53
2022-12-03T08:48:26.022Z,101940.09
2022-12-03T08:50:55.582Z,101935.03
2022-12-03T08:53:48.943Z,101930.78
2022-12-03T08:56:24.526Z,101938.41
2022-12-03T08:59:23.759Z,101930.69
2022-12-03T09:01:51.949Z,101937.44
2022-12-03T09:04:26.500Z,101939.16
2022-12-03T09:06:54.259Z,101939.31
2022-12-03T09:09:21.147Z,101937.75
2022-12-03T09:11:47.825Z,101932.75
2022-12-03T09:14:18.470Z,101927.75
2022-12-03T09:16:45.597Z,101928.66
2022-12-03T09:19:12.154Z,101938.16
2022-12-03T09:21:39.086Z,101929.69
2022-12-03T09:24:05.791Z,101933.16
2022-12-03T09:26:32.282Z,101933.06
2022-12-03T09:28:58.787Z,101931.47
2022-12-03T09:31:25.316Z,101923.75
2022-12-03T09:33:51.794Z,101926.38
2022-12-03T09:36:18.267Z,101936.63
2022-12-03T09:38:47.862Z,101931.50
2022-12-03T09:41:14.937Z,101930.66
2022-12-03T09:44:03.297Z,101927.31
2022-12-03T09:46:29.503Z,101932.47
2022-12-03T09:48:56.737Z,101941.91
2022-12-03T09:51:26.756Z,101931.50
2022-12-03T09:53:53.217Z,101932.47
2022-12-03T09:56:23.152Z,101930.72
2022-12-03T09:58:50.292Z,101921.19
2022-12-03T10:01:17.844Z,101923.00
2022-12-03T10:03:48.085Z,101926.31
2022-12-03T10:06:19.535Z,101915.16
2022-12-03T10:08:48.800Z,101909.09
2022-12-03T10:11:17.195Z,101905.59
2022-12-03T10:13:44.097Z,101908.16
2022-12-03T10:16:15.319Z,101903.91
2022-12-03T10:18:50.737Z,101905.53
2022-12-03T10:21:23.086Z,101902.03
2022-12-03T10:23:55.084Z,101886.72
2022-12-03T10:26:38.778Z,101883.34
2022-12-03T10:29:13.156Z,101882.47
2022-12-03T10:31:39.869Z,101888.41
2022-12-03T10:34:06.340Z,101867.84
2022-12-03T10:36:33.471Z,101876.34
2022-12-03T10:39:09.261Z,101864.38
2022-12-03T10:41:37.773Z,101857.53
2022-12-03T10:44:22.415Z,101868.59
2022-12-03T10:47:10.566Z,101860.84
2022-12-03T10:49:37.915Z,101848.94
2022-12-03T10:52:06.158Z,101842.09
2022-12-03T10:54:34.543Z,101837.03
2022-12-03T10:57:01.842Z,101845.63
2022-12-03T10:59:33.178Z,101838.81
2022-12-03T11:01:59.809Z,101842.19
2022-12-03T11:04:35.299Z,101837.00
2022-12-03T11:07:03.657Z,101827.59
2022-12-03T11:09:32.857Z,101834.44
2022-12-03T11:12:07.517Z,101832.75
2022-12-03T11:14:56.656Z,101825.00
2022-12-03T11:17:44.951Z,101828.41
2022-12-03T11:20:11.437Z,101828.41
2022-12-03T11:22:40.786Z,101824.13
2022-12-03T11:25:25.823Z,101818.97
2022-12-03T11:28:10.520Z,101818.16
2022-12-03T11:30:58.510Z,101824.19
2022-12-03T11:33:31.052Z,101819.13
2022-12-03T11:36:03.710Z,101815.75
2022-12-03T11:38:52.918Z,101821.72
2022-12-03T11:41:23.570Z,101810.47
2022-12-03T11:43:52.836Z,101809.63
2022-12-03T11:46:25.552Z,101802.81
2022-12-03T11:48:55.645Z,101811.41
2022-12-03T11:51:24.576Z,101799.41
2022-12-03T11:53:53.093Z,101801.97
2022-12-03T11:56:23.783Z,101797.75
2022-12-03T11:59:01.476Z,101796.91
2022-12-03T12:01:39.408Z,101800.38
2022-12-03T12:04:07.862Z,101782.34
2022-12-03T12:06:48.709Z,101776.41
2022-12-03T12:09:54.915Z,101779.03
2022-12-03T12:12:28.213Z,101770.44
2022-12-03T12:14:54.778Z,101775.56
2022-12-03T12:17:33.084Z,101778.94
2022-12-03T12:20:31.992Z,101761.84
2022-12-03T12:23:23.052Z,101770.34
2022-12-03T12:25:53.950Z,101769.44
2022-12-03T12:28:20.936Z,101764.31
2022-12-03T12:30:47.781Z,101761.75
2022-12-03T12:33:23.022Z,101757.50
2022-12-03T12:35:50.103Z,101752.34
2022-12-03T12:38:18.969Z,101748.94
2022-12-03T12:40:49.140Z,101743.75
2022-12-03T12:43:25.366Z,101743.69
2022-12-03T12:46:45.441Z,101745.47
2022-12-03T12:48:59.814Z,101748.06
2022-12-03T12:51:26.588Z,101739.53
2022-12-03T12:53:53.858Z,101742.94
2022-12-03T12:56:30.260Z,101737.81
2022-12-03T12:59:09.343Z,101730.94
2022-12-03T13:01:36.468Z,101734.31
2022-12-03T13:04:12.299Z,101735.22
2022-12-03T13:06:39.522Z,101737.78
2022-12-03T13:09:14.701Z,101743.75
2022-12-03T13:11:45.749Z,101739.47
2022-12-03T13:14:19.320Z,101732.63
2022-12-03T13:16:47.829Z,101736.06
2022-12-03T13:19:43.541Z,101726.66
2022-12-03T13:22:22.566Z,101722.38
2022-12-03T13:24:54.771Z,101713.84
2022-12-03T13:27:31.036Z,101719.88
2022-12-03T13:30:14.398Z,101711.31
2022-12-03T13:32:42.590Z,101715.53
2022-12-03T13:35:39.471Z,101719.81
2022-12-03T13:38:15.620Z,101710.38
2022-12-03T13:40:42.411Z,101720.59
2022-12-03T13:43:19.281Z,101704.34
2022-12-03T13:45:49.897Z,101698.34
2022-12-03T13:48:22.238Z,101707.75
2022-12-03T13:50:49.493Z,101705.22
2022-12-03T13:53:23.335Z,101700.97
2022-12-03T13:55:53.808Z,101700.97
2022-12-03T13:58:20.300Z,101697.59
2022-12-03T14:00:46.928Z,101694.19
2022-12-03T14:03:13.526Z,101695.88
2022-12-03T14:05:40.146Z,101692.44
2022-12-03T14:08:06.725Z,101694.16
2022-12-03T14:10:33.423Z,101694.13
2022-12-03T14:13:00.014Z,101700.06
2022-12-03T14:15:26.759Z,101690.63
2022-12-03T14:17:53.853Z,101696.66
2022-12-03T14:20:36.529Z,101696.66
2022-12-03T14:23:03.022Z,101697.47
2022-12-03T14:25:29.504Z,101687.22
2022-12-03T14:27:56.102Z,101686.41
2022-12-03T14:30:22.586Z,101691.56
2022-12-03T14:32:49.051Z,101689.88
2022-12-03T14:35:17.837Z,101681.38
2022-12-03T14:37:44.375Z,101686.44
2022-12-03T14:40:13.226Z,101689.00
2022-12-03T14:42:43.127Z,101689.06
2022-12-03T14:45:09.777Z,101698.41
2022-12-03T14:47:36.311Z,101694.94
2022-12-03T14:50:03.220Z,101703.50
2022-12-03T14:52:29.730Z,101692.34
2022-12-03T14:54:56.346Z,101696.66
2022-12-03T14:57:22.803Z,101688.97
2022-12-03T14:59:49.313Z,101682.94
2022-12-03T15:02:15.979Z,101677.84
2022-12-03T15:04:42.482Z,101681.28
2022-12-03T15:07:09.370Z,101689.78
2022-12-03T15:09:35.986Z,101684.59
2022-12-03T15:12:02.559Z,101687.22
2022-12-03T15:14:29.294Z,101685.50
2022-12-03T15:16:55.863Z,101688.91
2022-12-03T15:19:22.471Z,101681.19
2022-12-03T15:21:49.225Z,101683.75
2022-12-03T15:24:15.793Z,101694.91
2022-12-03T15:26:43.403Z,101688.06
2022-12-03T15:29:10.036Z,101688.06
2022-12-03T15:31:36.666Z,101689.78
2022-12-03T15:34:03.149Z,101684.66
2022-12-03T15:36:30.110Z,101681.22
2022-12-03T15:38:57.642Z,101676.97
2022-12-03T15:41:28.980Z,101680.38
2022-12-03T15:43:58.397Z,101676.09
2022-12-03T15:46:25.405Z,101682.03
2022-12-03T15:48:52.092Z,101685.41
2022-12-03T15:51:18.882Z,101681.94
2022-12-03T15:53:45.525Z,101687.09
2022-12-03T15:56:12.142Z,101685.41
2022-12-03T15:58:39.927Z,101685.41
2022-12-03T16:01:07.894Z,101687.13
2022-12-03T16:03:34.504Z,101688.88
2022-12-03T16:06:01.445Z,101691.44
2022-12-03T16:08:27.993Z,101688.88
2022-12-03T16:10:54.486Z,101689.72
2022-12-03T16:13:21.461Z,101686.25
2022-12-03T16:15:48.119Z,101684.59
2022-12-03T16:18:14.634Z,101686.28
2022-12-03T16:20:41.178Z,101681.19
2022-12-03T16:23:08.251Z,101684.59
2022-12-03T16:25:34.750Z,101683.75
2022-12-03T16:28:01.266Z,101677.78
2022-12-03T16:30:27.769Z,101678.66
2022-12-03T16:32:54.256Z,101683.78
2022-12-03T16:35:21.288Z,101672.69
2022-12-03T16:37:47.776Z,101674.41
2022-12-03T16:40:14.613Z,101682.13
2022-12-03T16:42:41.400Z,101675.28
2022-12-03T16:45:09.512Z,101675.28
2022-12-03T16:47:36.034Z,101673.59
2022-12-03T16:50:05.323Z,101671.03
2022-12-03T16:52:31.810Z,101679.47
2022-12-03T16:54:58.299Z,101671.75
2022-12-03T16:57:28.878Z,101670.88
2022-12-03T16:59:58.333Z,101670.03
2022-12-03T17:02:24.941Z,101671.72
2022-12-03T17:04:51.468Z,101667.47
2022-12-03T17:07:18.039Z,101671.72
2022-12-03T17:09:44.453Z,101667.47
2022-12-03T17:12:10.907Z,101667.47
2022-12-03T17:14:37.422Z,101675.16
2022-12-03T17:17:03.939Z,101675.16
2022-12-03T17:19:30.405Z,101670.03
2022-12-03T17:21:57.356Z,101679.44
2022-12-03T17:24:23.797Z,101670.88
2022-12-03T17:26:50.251Z,101677.75
2022-12-03T17:29:16.722Z,101674.34
2022-12-03T17:31:43.379Z,101667.50
2022-12-03T17:34:10.201Z,101668.28
2022-12-03T17:36:36.750Z,101662.28
2022-12-03T17:39:03.710Z,101662.28
2022-12-03T17:41:30.178Z,101663.13
2022-12-03T17:43:56.637Z,101672.53
2022-12-03T17:46:23.383Z,101664.84
2022-12-03T17:48:52.090Z,101655.41
2022-12-03T17:51:20.845Z,101659.72
2022-12-03T17:53:47.507Z,101658.03
2022-12-03T17:56:13.973Z,101654.59
2022-12-03T17:58:40.459Z,101657.16
2022-12-03T18:01:08.642Z,101649.50
2022-12-03T18:03:35.327Z,101647.81
2022-12-03T18:06:02.254Z,101653.78
2022-12-03T18:08:28.877Z,101646.97
2022-12-03T18:10:55.542Z,101644.41
2022-12-03T18:13:22.197Z,101647.72
2022-12-03T18:15:48.745Z,101643.44
2022-12-03T18:18:15.203Z,101639.13
2022-12-03T18:20:41.686Z,101637.47
2022-12-03T18:23:08.231Z,101635.78
2022-12-03T18:25:34.725Z,101636.63
2022-12-03T18:28:01.293Z,101639.19
2022-12-03T18:30:27.856Z,101636.66
2022-12-03T18:32:54.854Z,101629.84
2022-12-03T18:35:21.632Z,101640.94
2022-12-03T18:37:50.025Z,101635.78
2022-12-03T18:40:22.839Z,101640.84
2022-12-03T18:42:49.368Z,101636.56
2022-12-03T18:45:16.547Z,101630.63
2022-12-03T18:47:43.621Z,101633.22
2022-12-03T18:50:11.518Z,101628.13
2022-12-03T18:52:38.472Z,101623.88
2022-12-03T18:55:06.607Z,101620.44
2022-12-03T18:57:33.110Z,101617.84
2022-12-03T18:59:59.668Z,101615.28
2022-12-03T19:02:54.109Z,101616.97
2022-12-03T19:05:13.012Z,101626.28
2022-12-03T19:07:39.548Z,101621.16
2022-12-03T19:10:06.947Z,101623.75
2022-12-03T19:12:33.727Z,101635.72
2022-12-03T19:15:03.499Z,101628.91
2022-12-03T19:17:29.996Z,101633.19
2022-12-03T19:19:57.005Z,101628.03
2022-12-03T19:22:24.124Z,101636.63
2022-12-03T19:24:50.632Z,101636.56
2022-12-03T19:27:17.408Z,101636.53
2022-12-03T19:29:44.303Z,101625.41
2022-12-03T19:32:10.739Z,101627.16
2022-12-03T19:34:38.145Z,101627.19
2022-12-03T19:37:04.593Z,101616.13
2022-12-03T19:39:31.874Z,101613.50
2022-12-03T19:41:58.344Z,101618.59
2022-12-03T19:44:24.901Z,101625.41
2022-12-03T19:46:51.386Z,101622.00
2022-12-03T19:49:20.989Z,101621.16
2022-12-03T19:51:47.737Z,101622.84
2022-12-03T19:54:14.833Z,101628.00
2022-12-03T19:56:41.406Z,101630.50
2022-12-03T19:59:08.055Z,101632.19
2022-12-03T20:01:36.215Z,101632.25
2022-12-03T20:04:04.340Z,101626.28
2022-12-03T20:06:34.014Z,101631.41
2022-12-03T20:09:03.769Z,101633.16
2022-12-03T20:11:33.122Z,101632.31
2022-12-03T20:14:02.559Z,101622.91
2022-12-03T20:16:31.130Z,101628.88
2022-12-03T20:18:59.889Z,101622.91
2022-12-03T20:21:28.556Z,101626.31
2022-12-03T20:23:55.088Z,101629.69
2022-12-03T20:26:22.754Z,101629.63
2022-12-03T20:28:50.117Z,101627.06
2022-12-03T20:31:19.627Z,101630.44
2022-12-03T20:33:49.124Z,101623.66
2022-12-03T20:36:18.801Z,101624.53
2022-12-03T20:38:45.374Z,101624.56
2022-12-03T20:41:15.048Z,101619.44
2022-12-03T20:43:41.814Z,101617.78
2022-12-03T20:46:13.775Z,101611.81
2022-12-03T20:48:42.058Z,101612.66
2022-12-03T20:51:10.657Z,101613.50
2022-12-03T20:53:38.018Z,101611.81
2022-12-03T20:56:05.492Z,101618.53
2022-12-03T20:58:32.778Z,101605.72
2022-12-03T21:01:14.092Z,101614.31
2022-12-03T21:03:42.326Z,101608.34
2022-12-03T21:06:09.637Z,101609.19
2022-12-03T21:08:41.478Z,101609.19
2022-12-03T21:11:11.758Z,101607.47
2022-12-03T21:13:41.262Z,101606.63
2022-12-03T21:16:10.396Z,101604.97
2022-12-03T21:18:36.932Z,101607.47
2022-12-03T21:21:04.964Z,101602.31
2022-12-03T21:23:33.025Z,101604.00
2022-12-03T21:26:08.984Z,101603.97
2022-12-03T21:28:35.830Z,101600.50
2022-12-03T21:31:04.134Z,101595.44
2022-12-03T21:33:31.652Z,101600.59
2022-12-03T21:35:59.214Z,101601.47
2022-12-03T21:38:27.442Z,101595.50
2022-12-03T21:40:54.170Z,101600.63
2022-12-03T21:43:21.145Z,101602.31
2022-12-03T21:45:47.985Z,101592.13
2022-12-03T21:48:15.381Z,101601.50
2022-12-03T21:50:41.929Z,101599.84
2022-12-03T21:53:08.618Z,101599.81
2022-12-03T21:55:35.118Z,101607.50
2022-12-03T21:58:01.882Z,101603.22
2022-12-03T22:00:28.441Z,101604.06
2022-12-03T22:02:54.989Z,101600.66
2022-12-03T22:05:21.626Z,101604.94
2022-12-03T22:07:48.152Z,101604.94
2022-12-03T22:10:14.726Z,101596.34
2022-12-03T22:12:42.018Z,101593.78
2022-12-03T22:15:16.721Z,101592.13
2022-12-03T22:17:45.430Z,101587.00
2022-12-03T22:20:12.282Z,101586.09
2022-12-03T22:22:38.716Z,101586.97
2022-12-03T22:25:05.320Z,101585.28
2022-12-03T22:27:31.835Z,101584.47
2022-12-03T22:29:58.296Z,101587.03
2022-12-03T22:32:25.002Z,101582.78
2022-12-03T22:34:51.643Z,101583.63
2022-12-03T22:37:18.119Z,101581.06
2022-12-03T22:39:44.646Z,101576.75
2022-12-03T22:42:11.179Z,101577.56
2022-12-03T22:44:37.738Z,101574.94
2022-12-03T22:47:04.507Z,101577.47
2022-12-03T22:49:30.946Z,101566.38
2022-12-03T22:51:57.398Z,101566.41
2022-12-03T22:54:24.633Z,101568.97
2022-12-03T22:56:51.208Z,101562.16
2022-12-03T22:59:17.883Z,101562.19
2022-12-03T23:01:44.571Z,101567.31
2022-12-03T23:04:11.757Z,101557.97
2022-12-03T23:06:38.946Z,101559.69
2022-12-03T23:09:07.002Z,101554.50
2022-12-03T23:11:33.749Z,101557.06
2022-12-03T23:14:00.268Z,101552.81
2022-12-03T23:16:29.676Z,101558.78
2022-12-03T23:18:58.781Z,101554.47
2022-12-03T23:21:29.962Z,101545.03
2022-12-03T23:24:01.494Z,101553.56
2022-12-03T23:26:28.677Z,101549.31
2022-12-03T23:28:56.081Z,101551.00
2022-12-03T23:31:30.075Z,101557.84
2022-12-03T23:33:57.781Z,101557.88
2022-12-03T23:36:25.612Z,101552.69
2022-12-03T23:38:52.503Z,101554.41
2022-12-03T23:41:21.516Z,101553.59
2022-12-03T23:43:48.473Z,101545.94
2022-12-03T23:46:18.769Z,101545.84
2022-12-03T23:48:45.714Z,101546.63
2022-12-03T23:51:15.629Z,101537.28
2022-12-03T23:53:42.314Z,101535.53
2022-12-03T23:56:11.798Z,101539.75
2022-12-03T23:58:38.718Z,101531.25
